Share

Stuart, OK (74570)

8:19 PM CDT on April 23, 2014 (GMT -0500)
Horntown OK (KOKHOLDE3) Elev 827 ft | 35.08 °N, 96.26 °W | Change Station

Current weather conditions updated 13 minutes ago

Clear
Clear
74.5 °F
Feels Like 77 °F
N
10.4
Wind Variable Wind from SSW
Sunrise 6:42 AM
Sunset 8:03 PM
Moon Waning Crescent

Tomorrow is forecast to be Much Cooler than today. Thunderstorms early.

Pressure 29.74 in
Visibility 10.0 miles
Clouds Clear
Heat Index 77 °F
Dew Point 61 °F
Humidity 63%
Rainfall 0.01 in
Snow Depth Not available.
UV 0 out of 16
Pollen 8.60 out of 12
Air Quality Not available.
Flu Activity Regional
METAR KMLC 240053Z AUTO 15007KT 10SM CLR 25/13 A2976 RMK AO2 SLP070 T02500128

More Conditions Fewer Conditions

Pressure 29.74 in
Visibility 10.0 miles
Clouds Clear
Heat Index 77 °F
Dew Point 61 °F
Humidity 63%
Rainfall 0.01 in
Snow Depth Not available.
UV 0 out of 16
Pollen 8.60 out of 12
Air Quality Not available.
Flu Activity Regional
METAR KMLC 240053Z AUTO 15007KT 10SM CLR 25/13 A2976 RMK AO2 SLP070 T02500128

More Conditions Fewer Conditions

10-Day Weather Forecast

Almanac

Astronomy

Apr. 23, 2014 Rise Set
Actual Time 6:42 AM CDT 8:03 PM CDT
Civil Twilight 6:16 AM CDT 8:30 PM CDT
Nautical Twilight 5:44 AM CDT 9:01 PM CDT
Astronomical Twilight 5:11 AM CDT 9:34 PM CDT
Moon 3:00 AM CDT (4/23) 2:26 PM CDT (4/23)
Length of Visible Light 14h 13m
Length of Day
13h 20m
Tomorrow will be 1m 59s longer.
Waning Crescent, 31% of the Moon is Illuminated
Today
Waning Crescent
Apr 29
New
May 6
First Quarter
May 14
Full
May 21
Last Quarter

Today's Extremes

State Highs State Lows

Community

  • Nestled In
    Nestled In
  • Stunning Sunrise
    Stunning Sunrise
  • spring flowers
    spring flowers
  • Earth Day Spectrum Ove' Blue
    Earth Day Spectrum Ove' Blue
  • BARN B&W
    BARN B&W

WunderPhotos

Upload Photos

1,704,485 photos uploaded!

Nearby

Snow Depth

Station Depth Elevation
No new snow has been reported.

Coastal Water Temperatures

Place Temperature
No Stations Reporting

Earthquake Activity

City Distance Mag. Time & Date
Stillwater, Oklahoma 95 miles 2.8 5:30 PM CDT
2014-04-19
Enid, Oklahoma 150 miles 2.9 1:11 PM CDT
2014-04-19
Perry, Oklahoma 113 miles 4.0 5:43 AM CDT
2014-04-19
Stillwater, Oklahoma 94 miles 2.7 3:40 AM CDT
2014-04-19
Minimum magnitude displayed is 2.5.

Nearby Weather Stations

Station Location Temp. Heat Index Dew Point Humidity Wind Precip. Elev Updated Type
Horntown OK, Holdenville, OK 74.5 °F 77 °F 61 °F 63% SSW  at  10.4 mph - / hr 827 ft 8:05 PM CDT Normal
MesoWest GRACE , Wardville, OK 79 °F 77 °F - - North  at  - 0.00 in / hr 678 ft 6:50 PM CDT MADIS
Kinkead Hills, McAlester, OK 74.9 °F 77 °F 59 °F 57% SE  at  2.0 mph - / hr 808 ft 8:09 PM CDT Normal

Show More Stations Show Fewer Stations

What do you think?

We're not finished. Please let us know what you like, what you don't like, and what you are still missing.